sensor_id;sensor_type;location;lat;lon;timestamp;temperature;humidity
24686;DHT22;12804;51.176;4.452;2023-06-10T00:02:11;22.90;99.90
24686;DHT22;12804;51.176;4.452;2023-06-10T00:04:36;22.90;1.00
24686;DHT22;12804;51.176;4.452;2023-06-10T00:07:03;22.90;99.90
24686;DHT22;12804;51.176;4.452;2023-06-10T00:09:29;22.80;1.00
24686;DHT22;12804;51.176;4.452;2023-06-10T00:11:55;22.70;1.00
24686;DHT22;12804;51.176;4.452;2023-06-10T00:14:21;22.60;1.00
24686;DHT22;12804;51.176;4.452;2023-06-10T00:16:47;22.60;99.90
24686;DHT22;12804;51.176;4.452;2023-06-10T00:19:12;22.50;99.90
24686;DHT22;12804;51.176;4.452;2023-06-10T00:21:42;22.50;99.90
24686;DHT22;12804;51.176;4.452;2023-06-10T00:24:10;22.50;99.90
24686;DHT22;12804;51.176;4.452;2023-06-10T00:26:37;22.50;99.90
24686;DHT22;12804;51.176;4.452;2023-06-10T00:29:03;22.50;1.00
24686;DHT22;12804;51.176;4.452;2023-06-10T00:31:29;22.40;1.00
24686;DHT22;12804;51.176;4.452;2023-06-10T00:33:55;22.40;1.00
24686;DHT22;12804;51.176;4.452;2023-06-10T00:36:21;22.30;1.00
24686;DHT22;12804;51.176;4.452;2023-06-10T00:38:48;22.30;1.00
24686;DHT22;12804;51.176;4.452;2023-06-10T00:41:14;22.30;1.00
24686;DHT22;12804;51.176;4.452;2023-06-10T00:43:40;22.30;1.00
24686;DHT22;12804;51.176;4.452;2023-06-10T00:46:07;22.40;1.00
24686;DHT22;12804;51.176;4.452;2023-06-10T00:48:33;22.40;1.00
24686;DHT22;12804;51.176;4.452;2023-06-10T00:50:59;22.40;1.00
24686;DHT22;12804;51.176;4.452;2023-06-10T00:53:26;22.30;1.00
24686;DHT22;12804;51.176;4.452;2023-06-10T00:55:53;22.20;1.00
24686;DHT22;12804;51.176;4.452;2023-06-10T00:58:19;22.20;1.00
24686;DHT22;12804;51.176;4.452;2023-06-10T01:00:45;22.20;1.00
24686;DHT22;12804;51.176;4.452;2023-06-10T01:03:12;22.20;1.00
24686;DHT22;12804;51.176;4.452;2023-06-10T01:05:38;22.10;70.40
24686;DHT22;12804;51.176;4.452;2023-06-10T01:08:12;22.00;99.90
24686;DHT22;12804;51.176;4.452;2023-06-10T01:10:51;22.10;99.90
24686;DHT22;12804;51.176;4.452;2023-06-10T01:13:23;22.10;99.90
24686;DHT22;12804;51.176;4.452;2023-06-10T01:15:55;22.10;99.90
24686;DHT22;12804;51.176;4.452;2023-06-10T01:18:22;22.10;99.90
24686;DHT22;12804;51.176;4.452;2023-06-10T01:20:48;22.00;99.90
24686;DHT22;12804;51.176;4.452;2023-06-10T01:23:14;22.00;99.90
24686;DHT22;12804;51.176;4.452;2023-06-10T01:25:45;22.00;99.90
24686;DHT22;12804;51.176;4.452;2023-06-10T01:33:10;21.90;99.90
24686;DHT22;12804;51.176;4.452;2023-06-10T01:35:37;21.90;99.90
24686;DHT22;12804;51.176;4.452;2023-06-10T01:38:05;22.00;99.90
24686;DHT22;12804;51.176;4.452;2023-06-10T01:40:32;21.90;99.90
24686;DHT22;12804;51.176;4.452;2023-06-10T01:42:58;21.90;99.90
24686;DHT22;12804;51.176;4.452;2023-06-10T01:45:24;21.80;1.00
24686;DHT22;12804;51.176;4.452;2023-06-10T01:47:50;21.80;1.00
24686;DHT22;12804;51.176;4.452;2023-06-10T01:50:16;21.70;1.00
24686;DHT22;12804;51.176;4.452;2023-06-10T01:52:42;21.70;1.00
24686;DHT22;12804;51.176;4.452;2023-06-10T01:55:08;21.70;1.00
24686;DHT22;12804;51.176;4.452;2023-06-10T01:57:33;21.70;1.00
24686;DHT22;12804;51.176;4.452;2023-06-10T01:59:59;21.60;1.00
24686;DHT22;12804;51.176;4.452;2023-06-10T02:02:25;21.60;1.00
24686;DHT22;12804;51.176;4.452;2023-06-10T02:04:51;21.50;1.00
24686;DHT22;12804;51.176;4.452;2023-06-10T02:07:20;21.50;1.00
24686;DHT22;12804;51.176;4.452;2023-06-10T02:09:46;21.50;1.00
24686;DHT22;12804;51.176;4.452;2023-06-10T02:12:11;21.50;1.00
24686;DHT22;12804;51.176;4.452;2023-06-10T02:14:37;21.50;1.00
24686;DHT22;12804;51.176;4.452;2023-06-10T02:17:03;21.40;1.00
24686;DHT22;12804;51.176;4.452;2023-06-10T02:19:30;21.40;1.00
24686;DHT22;12804;51.176;4.452;2023-06-10T02:21:56;21.30;1.00
24686;DHT22;12804;51.176;4.452;2023-06-10T02:24:22;21.30;1.00
24686;DHT22;12804;51.176;4.452;2023-06-10T02:26:48;21.30;1.00
24686;DHT22;12804;51.176;4.452;2023-06-10T02:29:14;21.30;1.00
24686;DHT22;12804;51.176;4.452;2023-06-10T02:31:39;21.30;1.00
24686;DHT22;12804;51.176;4.452;2023-06-10T02:34:07;21.20;1.00
24686;DHT22;12804;51.176;4.452;2023-06-10T02:36:33;21.20;1.00
24686;DHT22;12804;51.176;4.452;2023-06-10T02:39:01;21.20;1.00
24686;DHT22;12804;51.176;4.452;2023-06-10T02:41:28;21.20;1.00
24686;DHT22;12804;51.176;4.452;2023-06-10T02:43:54;21.10;1.00
24686;DHT22;12804;51.176;4.452;2023-06-10T02:46:21;21.10;1.00
24686;DHT22;12804;51.176;4.452;2023-06-10T02:48:47;21.10;1.00
24686;DHT22;12804;51.176;4.452;2023-06-10T02:51:19;21.00;1.00
24686;DHT22;12804;51.176;4.452;2023-06-10T02:53:48;21.00;1.00
24686;DHT22;12804;51.176;4.452;2023-06-10T02:56:16;20.90;1.00
24686;DHT22;12804;51.176;4.452;2023-06-10T02:58:42;20.90;1.00
24686;DHT22;12804;51.176;4.452;2023-06-10T03:01:10;20.80;1.00
24686;DHT22;12804;51.176;4.452;2023-06-10T03:03:56;20.70;1.00
24686;DHT22;12804;51.176;4.452;2023-06-10T03:06:22;20.70;1.00
24686;DHT22;12804;51.176;4.452;2023-06-10T03:08:50;20.70;1.00
24686;DHT22;12804;51.176;4.452;2023-06-10T03:11:18;20.60;1.00
24686;DHT22;12804;51.176;4.452;2023-06-10T03:13:45;20.50;1.00
24686;DHT22;12804;51.176;4.452;2023-06-10T03:16:15;20.50;1.00
24686;DHT22;12804;51.176;4.452;2023-06-10T03:18:41;20.50;1.00
24686;DHT22;12804;51.176;4.452;2023-06-10T03:21:08;20.50;1.00
24686;DHT22;12804;51.176;4.452;2023-06-10T03:23:35;20.50;1.00
24686;DHT22;12804;51.176;4.452;2023-06-10T03:26:01;20.50;1.00
24686;DHT22;12804;51.176;4.452;2023-06-10T03:28:29;20.50;1.00
24686;DHT22;12804;51.176;4.452;2023-06-10T03:30:56;20.50;1.00
24686;DHT22;12804;51.176;4.452;2023-06-10T03:33:24;20.40;1.00
24686;DHT22;12804;51.176;4.452;2023-06-10T03:35:50;20.40;1.00
24686;DHT22;12804;51.176;4.452;2023-06-10T03:38:16;20.40;1.00
24686;DHT22;12804;51.176;4.452;2023-06-10T03:40:43;20.40;1.00
24686;DHT22;12804;51.176;4.452;2023-06-10T03:43:10;20.50;1.00
24686;DHT22;12804;51.176;4.452;2023-06-10T03:45:36;20.50;1.00
24686;DHT22;12804;51.176;4.452;2023-06-10T03:48:02;20.50;1.00
24686;DHT22;12804;51.176;4.452;2023-06-10T03:50:37;20.50;1.00
24686;DHT22;12804;51.176;4.452;2023-06-10T03:53:03;20.50;1.00
24686;DHT22;12804;51.176;4.452;2023-06-10T03:55:30;20.40;1.00
24686;DHT22;12804;51.176;4.452;2023-06-10T03:57:58;20.40;1.00
24686;DHT22;12804;51.176;4.452;2023-06-10T04:00:24;20.50;1.00
24686;DHT22;12804;51.176;4.452;2023-06-10T04:02:50;20.50;1.00
24686;DHT22;12804;51.176;4.452;2023-06-10T04:05:26;20.50;1.00
24686;DHT22;12804;51.176;4.452;2023-06-10T04:07:54;20.50;1.00
24686;DHT22;12804;51.176;4.452;2023-06-10T04:10:20;20.50;1.00
24686;DHT22;12804;51.176;4.452;2023-06-10T04:12:46;20.50;1.00
24686;DHT22;12804;51.176;4.452;2023-06-10T04:15:12;20.50;1.00
24686;DHT22;12804;51.176;4.452;2023-06-10T04:17:39;20.60;1.00
24686;DHT22;12804;51.176;4.452;2023-06-10T04:20:06;20.50;1.00
24686;DHT22;12804;51.176;4.452;2023-06-10T04:22:34;20.50;1.00
24686;DHT22;12804;51.176;4.452;2023-06-10T04:25:02;20.60;1.00
24686;DHT22;12804;51.176;4.452;2023-06-10T04:27:29;20.60;1.00
24686;DHT22;12804;51.176;4.452;2023-06-10T04:29:55;20.70;1.00
24686;DHT22;12804;51.176;4.452;2023-06-10T04:32:20;20.70;1.00
24686;DHT22;12804;51.176;4.452;2023-06-10T04:34:47;20.70;1.00
24686;DHT22;12804;51.176;4.452;2023-06-10T04:37:14;20.80;1.00
24686;DHT22;12804;51.176;4.452;2023-06-10T04:39:40;20.90;1.00
24686;DHT22;12804;51.176;4.452;2023-06-10T04:42:07;20.90;1.00
24686;DHT22;12804;51.176;4.452;2023-06-10T04:44:34;21.00;1.00
24686;DHT22;12804;51.176;4.452;2023-06-10T04:47:00;21.00;1.00
24686;DHT22;12804;51.176;4.452;2023-06-10T04:49:26;21.00;1.00
24686;DHT22;12804;51.176;4.452;2023-06-10T04:51:52;20.90;1.00
24686;DHT22;12804;51.176;4.452;2023-06-10T04:54:18;21.00;1.00
24686;DHT22;12804;51.176;4.452;2023-06-10T04:56:44;21.00;1.00
24686;DHT22;12804;51.176;4.452;2023-06-10T04:59:10;21.00;1.00
24686;DHT22;12804;51.176;4.452;2023-06-10T05:01:36;21.10;1.00
24686;DHT22;12804;51.176;4.452;2023-06-10T05:04:02;21.00;1.00
24686;DHT22;12804;51.176;4.452;2023-06-10T05:06:28;21.10;1.00
24686;DHT22;12804;51.176;4.452;2023-06-10T05:08:54;21.10;1.00
24686;DHT22;12804;51.176;4.452;2023-06-10T05:11:20;21.20;1.00
24686;DHT22;12804;51.176;4.452;2023-06-10T05:13:45;21.30;1.00
24686;DHT22;12804;51.176;4.452;2023-06-10T05:16:11;21.40;1.00
24686;DHT22;12804;51.176;4.452;2023-06-10T05:18:37;21.40;1.00
24686;DHT22;12804;51.176;4.452;2023-06-10T05:21:03;21.40;1.00
24686;DHT22;12804;51.176;4.452;2023-06-10T05:23:29;21.40;1.00
24686;DHT22;12804;51.176;4.452;2023-06-10T05:25:54;21.50;1.00
24686;DHT22;12804;51.176;4.452;2023-06-10T05:28:20;21.50;1.00
24686;DHT22;12804;51.176;4.452;2023-06-10T05:30:46;21.70;1.00
24686;DHT22;12804;51.176;4.452;2023-06-10T05:33:12;21.80;1.00
24686;DHT22;12804;51.176;4.452;2023-06-10T05:35:38;21.90;1.00
24686;DHT22;12804;51.176;4.452;2023-06-10T05:38:03;22.00;1.00
24686;DHT22;12804;51.176;4.452;2023-06-10T05:40:29;21.90;1.00
24686;DHT22;12804;51.176;4.452;2023-06-10T05:42:55;22.00;1.00
24686;DHT22;12804;51.176;4.452;2023-06-10T05:45:21;22.10;1.00
24686;DHT22;12804;51.176;4.452;2023-06-10T05:47:47;22.10;1.00
24686;DHT22;12804;51.176;4.452;2023-06-10T05:50:12;22.10;1.00
24686;DHT22;12804;51.176;4.452;2023-06-10T05:52:38;22.10;1.00
24686;DHT22;12804;51.176;4.452;2023-06-10T05:55:07;22.00;1.00
24686;DHT22;12804;51.176;4.452;2023-06-10T05:57:33;22.00;1.00
24686;DHT22;12804;51.176;4.452;2023-06-10T05:59:59;22.20;1.00
24686;DHT22;12804;51.176;4.452;2023-06-10T06:02:25;22.20;1.00
24686;DHT22;12804;51.176;4.452;2023-06-10T06:04:51;22.10;1.00
24686;DHT22;12804;51.176;4.452;2023-06-10T06:07:17;22.10;1.00
24686;DHT22;12804;51.176;4.452;2023-06-10T06:09:42;22.00;1.00
24686;DHT22;12804;51.176;4.452;2023-06-10T06:12:08;22.10;1.00
24686;DHT22;12804;51.176;4.452;2023-06-10T06:14:37;22.20;1.00
24686;DHT22;12804;51.176;4.452;2023-06-10T06:17:05;22.30;1.00
24686;DHT22;12804;51.176;4.452;2023-06-10T06:19:31;22.40;1.00
24686;DHT22;12804;51.176;4.452;2023-06-10T06:21:57;22.50;1.00
24686;DHT22;12804;51.176;4.452;2023-06-10T06:24:23;22.60;1.00
24686;DHT22;12804;51.176;4.452;2023-06-10T06:26:49;22.70;1.00
24686;DHT22;12804;51.176;4.452;2023-06-10T06:29:15;22.60;1.00
24686;DHT22;12804;51.176;4.452;2023-06-10T06:31:40;22.60;1.00
24686;DHT22;12804;51.176;4.452;2023-06-10T06:34:06;22.70;1.00
24686;DHT22;12804;51.176;4.452;2023-06-10T06:36:32;22.70;1.00
24686;DHT22;12804;51.176;4.452;2023-06-10T06:38:58;22.70;99.90
24686;DHT22;12804;51.176;4.452;2023-06-10T06:41:26;22.70;1.00
24686;DHT22;12804;51.176;4.452;2023-06-10T06:43:54;22.80;1.00
24686;DHT22;12804;51.176;4.452;2023-06-10T06:46:38;23.10;99.90
24686;DHT22;12804;51.176;4.452;2023-06-10T06:49:04;23.20;99.90
24686;DHT22;12804;51.176;4.452;2023-06-10T06:51:30;23.20;99.90
24686;DHT22;12804;51.176;4.452;2023-06-10T06:53:56;23.20;99.90
24686;DHT22;12804;51.176;4.452;2023-06-10T06:56:24;23.20;99.90
24686;DHT22;12804;51.176;4.452;2023-06-10T06:58:52;23.40;99.90
24686;DHT22;12804;51.176;4.452;2023-06-10T07:01:17;23.60;99.90
24686;DHT22;12804;51.176;4.452;2023-06-10T07:03:43;23.50;99.90
24686;DHT22;12804;51.176;4.452;2023-06-10T07:06:09;23.60;99.90
24686;DHT22;12804;51.176;4.452;2023-06-10T07:08:35;23.70;99.90
24686;DHT22;12804;51.176;4.452;2023-06-10T07:11:02;23.80;24.10
24686;DHT22;12804;51.176;4.452;2023-06-10T07:13:27;23.80;8.00
24686;DHT22;12804;51.176;4.452;2023-06-10T07:15:53;24.00;9.30
24686;DHT22;12804;51.176;4.452;2023-06-10T07:18:19;24.00;1.00
24686;DHT22;12804;51.176;4.452;2023-06-10T07:20:45;24.00;1.00
24686;DHT22;12804;51.176;4.452;2023-06-10T07:23:11;24.10;1.00
24686;DHT22;12804;51.176;4.452;2023-06-10T07:25:37;24.20;1.00
24686;DHT22;12804;51.176;4.452;2023-06-10T07:28:03;24.40;1.00
24686;DHT22;12804;51.176;4.452;2023-06-10T07:30:29;24.50;1.00
24686;DHT22;12804;51.176;4.452;2023-06-10T07:32:54;24.60;1.00
24686;DHT22;12804;51.176;4.452;2023-06-10T07:35:21;24.70;1.00
24686;DHT22;12804;51.176;4.452;2023-06-10T07:37:47;24.80;1.00
24686;DHT22;12804;51.176;4.452;2023-06-10T07:40:13;24.90;99.90
24686;DHT22;12804;51.176;4.452;2023-06-10T07:42:38;24.90;1.00
24686;DHT22;12804;51.176;4.452;2023-06-10T07:45:05;25.00;1.00
24686;DHT22;12804;51.176;4.452;2023-06-10T07:47:33;25.00;1.00
24686;DHT22;12804;51.176;4.452;2023-06-10T07:49:59;25.00;1.00
24686;DHT22;12804;51.176;4.452;2023-06-10T07:52:25;25.10;8.80
24686;DHT22;12804;51.176;4.452;2023-06-10T07:54:51;25.20;1.00
24686;DHT22;12804;51.176;4.452;2023-06-10T07:57:18;25.40;99.90
24686;DHT22;12804;51.176;4.452;2023-06-10T07:59:44;25.40;99.90
24686;DHT22;12804;51.176;4.452;2023-06-10T08:02:10;25.50;1.00
24686;DHT22;12804;51.176;4.452;2023-06-10T08:04:36;25.60;99.90
24686;DHT22;12804;51.176;4.452;2023-06-10T08:07:02;25.70;99.90
24686;DHT22;12804;51.176;4.452;2023-06-10T08:09:28;25.70;1.00
24686;DHT22;12804;51.176;4.452;2023-06-10T08:11:54;25.80;1.00
24686;DHT22;12804;51.176;4.452;2023-06-10T08:14:21;25.70;1.00
24686;DHT22;12804;51.176;4.452;2023-06-10T08:16:47;25.80;21.40
24686;DHT22;12804;51.176;4.452;2023-06-10T08:19:13;25.80;99.90
24686;DHT22;12804;51.176;4.452;2023-06-10T08:21:42;25.80;99.90
24686;DHT22;12804;51.176;4.452;2023-06-10T08:24:09;26.00;1.00
24686;DHT22;12804;51.176;4.452;2023-06-10T08:26:35;26.20;1.00
24686;DHT22;12804;51.176;4.452;2023-06-10T08:29:00;26.20;1.00
24686;DHT22;12804;51.176;4.452;2023-06-10T08:31:26;26.40;1.00
24686;DHT22;12804;51.176;4.452;2023-06-10T08:33:52;26.40;1.00
24686;DHT22;12804;51.176;4.452;2023-06-10T08:36:18;26.50;99.90
24686;DHT22;12804;51.176;4.452;2023-06-10T08:38:44;26.60;99.90
24686;DHT22;12804;51.176;4.452;2023-06-10T08:41:10;26.60;15.00
24686;DHT22;12804;51.176;4.452;2023-06-10T08:43:45;26.80;99.90
24686;DHT22;12804;51.176;4.452;2023-06-10T08:46:12;27.10;99.90
24686;DHT22;12804;51.176;4.452;2023-06-10T08:48:42;27.10;1.00
24686;DHT22;12804;51.176;4.452;2023-06-10T08:51:12;27.30;1.00
24686;DHT22;12804;51.176;4.452;2023-06-10T08:53:48;27.30;99.90
24686;DHT22;12804;51.176;4.452;2023-06-10T08:56:15;27.30;10.10
24686;DHT22;12804;51.176;4.452;2023-06-10T08:58:42;27.30;1.00
24686;DHT22;12804;51.176;4.452;2023-06-10T09:01:08;27.40;80.90
24686;DHT22;12804;51.176;4.452;2023-06-10T09:03:37;27.60;1.00
24686;DHT22;12804;51.176;4.452;2023-06-10T09:06:05;27.70;1.00
24686;DHT22;12804;51.176;4.452;2023-06-10T09:08:32;27.60;1.00
24686;DHT22;12804;51.176;4.452;2023-06-10T09:10:59;27.80;1.00
24686;DHT22;12804;51.176;4.452;2023-06-10T09:13:24;27.90;1.00
24686;DHT22;12804;51.176;4.452;2023-06-10T09:15:50;27.90;1.00
24686;DHT22;12804;51.176;4.452;2023-06-10T09:18:16;28.10;1.00
24686;DHT22;12804;51.176;4.452;2023-06-10T09:20:43;28.00;1.00
24686;DHT22;12804;51.176;4.452;2023-06-10T09:23:09;28.10;1.00
24686;DHT22;12804;51.176;4.452;2023-06-10T09:25:37;28.20;1.00
24686;DHT22;12804;51.176;4.452;2023-06-10T09:28:03;28.40;1.00
24686;DHT22;12804;51.176;4.452;2023-06-10T09:30:38;28.50;99.90
24686;DHT22;12804;51.176;4.452;2023-06-10T09:33:14;28.60;99.90
24686;DHT22;12804;51.176;4.452;2023-06-10T09:35:48;28.70;99.90
24686;DHT22;12804;51.176;4.452;2023-06-10T09:38:20;28.90;99.90
24686;DHT22;12804;51.176;4.452;2023-06-10T09:40:53;28.90;99.90
24686;DHT22;12804;51.176;4.452;2023-06-10T09:43:19;28.80;25.50
24686;DHT22;12804;51.176;4.452;2023-06-10T09:45:51;28.80;1.00
24686;DHT22;12804;51.176;4.452;2023-06-10T09:48:19;28.90;1.00
24686;DHT22;12804;51.176;4.452;2023-06-10T09:50:46;28.90;1.00
24686;DHT22;12804;51.176;4.452;2023-06-10T09:53:12;28.90;1.00
24686;DHT22;12804;51.176;4.452;2023-06-10T09:55:39;29.00;1.00
24686;DHT22;12804;51.176;4.452;2023-06-10T09:58:05;28.90;1.00
24686;DHT22;12804;51.176;4.452;2023-06-10T10:00:34;29.10;1.00
24686;DHT22;12804;51.176;4.452;2023-06-10T10:03:01;29.10;1.00
24686;DHT22;12804;51.176;4.452;2023-06-10T10:05:28;29.20;1.00
24686;DHT22;12804;51.176;4.452;2023-06-10T10:07:55;29.30;1.00
24686;DHT22;12804;51.176;4.452;2023-06-10T10:10:23;29.40;1.00
24686;DHT22;12804;51.176;4.452;2023-06-10T10:12:56;29.50;1.00
24686;DHT22;12804;51.176;4.452;2023-06-10T10:15:24;29.50;1.00
24686;DHT22;12804;51.176;4.452;2023-06-10T10:18:00;29.60;1.00
24686;DHT22;12804;51.176;4.452;2023-06-10T10:20:39;29.60;1.00
24686;DHT22;12804;51.176;4.452;2023-06-10T10:23:08;29.70;1.00
24686;DHT22;12804;51.176;4.452;2023-06-10T10:25:38;29.80;99.90
24686;DHT22;12804;51.176;4.452;2023-06-10T10:28:11;29.80;99.90
24686;DHT22;12804;51.176;4.452;2023-06-10T10:30:45;29.90;99.90
24686;DHT22;12804;51.176;4.452;2023-06-10T10:33:54;30.00;99.90
24686;DHT22;12804;51.176;4.452;2023-06-10T10:36:17;30.10;99.90
24686;DHT22;12804;51.176;4.452;2023-06-10T10:38:45;30.20;99.90
24686;DHT22;12804;51.176;4.452;2023-06-10T10:41:13;30.40;99.90
24686;DHT22;12804;51.176;4.452;2023-06-10T10:43:40;30.40;99.90
24686;DHT22;12804;51.176;4.452;2023-06-10T10:46:12;30.50;99.90
24686;DHT22;12804;51.176;4.452;2023-06-10T10:48:38;30.60;99.90
24686;DHT22;12804;51.176;4.452;2023-06-10T10:51:07;30.90;91.60
24686;DHT22;12804;51.176;4.452;2023-06-10T10:53:33;31.00;28.40
24686;DHT22;12804;51.176;4.452;2023-06-10T10:56:13;30.90;24.10
24686;DHT22;12804;51.176;4.452;2023-06-10T10:58:40;30.90;21.70
24686;DHT22;12804;51.176;4.452;2023-06-10T11:01:12;31.10;47.80
24686;DHT22;12804;51.176;4.452;2023-06-10T11:03:44;31.30;44.20
24686;DHT22;12804;51.176;4.452;2023-06-10T11:06:14;31.40;14.40
24686;DHT22;12804;51.176;4.452;2023-06-10T11:11:24;32.50;1.00
24686;DHT22;12804;51.176;4.452;2023-06-10T11:16:42;33.90;1.00
24686;DHT22;12804;51.176;4.452;2023-06-10T11:19:09;34.30;1.00
24686;DHT22;12804;51.176;4.452;2023-06-10T11:21:57;35.00;1.00
24686;DHT22;12804;51.176;4.452;2023-06-10T11:24:24;33.90;1.00
24686;DHT22;12804;51.176;4.452;2023-06-10T11:26:51;35.30;1.00
24686;DHT22;12804;51.176;4.452;2023-06-10T11:29:17;35.40;1.00
24686;DHT22;12804;51.176;4.452;2023-06-10T11:31:45;35.20;1.00
24686;DHT22;12804;51.176;4.452;2023-06-10T11:34:12;35.00;1.00
24686;DHT22;12804;51.176;4.452;2023-06-10T11:36:39;35.50;1.00
24686;DHT22;12804;51.176;4.452;2023-06-10T11:39:11;36.30;1.00
24686;DHT22;12804;51.176;4.452;2023-06-10T11:41:38;36.90;1.00
24686;DHT22;12804;51.176;4.452;2023-06-10T11:44:13;36.60;1.00
24686;DHT22;12804;51.176;4.452;2023-06-10T11:46:39;37.30;1.00
24686;DHT22;12804;51.176;4.452;2023-06-10T11:49:06;37.00;1.00
24686;DHT22;12804;51.176;4.452;2023-06-10T11:51:34;37.70;1.00
24686;DHT22;12804;51.176;4.452;2023-06-10T11:54:00;37.00;1.00
24686;DHT22;12804;51.176;4.452;2023-06-10T11:56:28;38.20;1.00
24686;DHT22;12804;51.176;4.452;2023-06-10T11:59:02;37.00;1.00
24686;DHT22;12804;51.176;4.452;2023-06-10T12:01:31;37.20;1.00
24686;DHT22;12804;51.176;4.452;2023-06-10T12:06:27;38.60;1.00
24686;DHT22;12804;51.176;4.452;2023-06-10T12:08:54;38.70;1.00
24686;DHT22;12804;51.176;4.452;2023-06-10T12:11:20;37.80;1.00
24686;DHT22;12804;51.176;4.452;2023-06-10T12:13:48;36.30;1.00
24686;DHT22;12804;51.176;4.452;2023-06-10T12:16:18;36.80;1.00
24686;DHT22;12804;51.176;4.452;2023-06-10T12:18:46;37.40;1.00
24686;DHT22;12804;51.176;4.452;2023-06-10T12:21:16;37.60;1.00
24686;DHT22;12804;51.176;4.452;2023-06-10T12:24:03;37.40;1.00
24686;DHT22;12804;51.176;4.452;2023-06-10T12:26:48;37.50;1.00
24686;DHT22;12804;51.176;4.452;2023-06-10T12:29:24;38.30;1.00
24686;DHT22;12804;51.176;4.452;2023-06-10T12:32:02;37.10;1.00
24686;DHT22;12804;51.176;4.452;2023-06-10T12:34:36;37.60;1.00
24686;DHT22;12804;51.176;4.452;2023-06-10T12:37:04;36.30;1.00
24686;DHT22;12804;51.176;4.452;2023-06-10T12:39:34;36.70;1.00
24686;DHT22;12804;51.176;4.452;2023-06-10T12:42:00;37.60;1.00
24686;DHT22;12804;51.176;4.452;2023-06-10T12:44:34;39.30;1.00
24686;DHT22;12804;51.176;4.452;2023-06-10T12:47:07;39.30;1.00
24686;DHT22;12804;51.176;4.452;2023-06-10T12:49:34;38.50;1.00
24686;DHT22;12804;51.176;4.452;2023-06-10T12:52:00;37.00;1.00
24686;DHT22;12804;51.176;4.452;2023-06-10T12:54:26;36.90;1.00
24686;DHT22;12804;51.176;4.452;2023-06-10T12:56:52;36.20;1.00
24686;DHT22;12804;51.176;4.452;2023-06-10T12:59:18;36.80;1.00
24686;DHT22;12804;51.176;4.452;2023-06-10T13:01:49;38.10;1.00
24686;DHT22;12804;51.176;4.452;2023-06-10T13:04:16;38.80;1.00
24686;DHT22;12804;51.176;4.452;2023-06-10T13:06:42;40.40;1.00
24686;DHT22;12804;51.176;4.452;2023-06-10T13:09:08;40.30;1.00
24686;DHT22;12804;51.176;4.452;2023-06-10T13:11:34;40.80;1.00
24686;DHT22;12804;51.176;4.452;2023-06-10T13:14:01;40.70;1.00
24686;DHT22;12804;51.176;4.452;2023-06-10T13:16:28;41.80;1.00
24686;DHT22;12804;51.176;4.452;2023-06-10T13:18:54;41.90;1.00
24686;DHT22;12804;51.176;4.452;2023-06-10T13:21:20;41.90;1.00
24686;DHT22;12804;51.176;4.452;2023-06-10T13:23:46;40.60;1.00
24686;DHT22;12804;51.176;4.452;2023-06-10T13:26:16;39.70;1.00
24686;DHT22;12804;51.176;4.452;2023-06-10T13:28:43;40.50;1.00
24686;DHT22;12804;51.176;4.452;2023-06-10T13:31:09;41.20;1.00
24686;DHT22;12804;51.176;4.452;2023-06-10T13:33:35;41.00;1.00
24686;DHT22;12804;51.176;4.452;2023-06-10T13:36:01;41.90;1.00
24686;DHT22;12804;51.176;4.452;2023-06-10T13:38:27;41.00;1.00
24686;DHT22;12804;51.176;4.452;2023-06-10T13:40:53;41.20;1.00
24686;DHT22;12804;51.176;4.452;2023-06-10T13:43:19;42.10;1.00
24686;DHT22;12804;51.176;4.452;2023-06-10T13:45:46;43.00;1.00
24686;DHT22;12804;51.176;4.452;2023-06-10T13:48:12;42.80;1.00
24686;DHT22;12804;51.176;4.452;2023-06-10T13:50:38;42.70;1.00
24686;DHT22;12804;51.176;4.452;2023-06-10T13:53:04;42.10;1.00
24686;DHT22;12804;51.176;4.452;2023-06-10T13:55:29;42.40;1.00
24686;DHT22;12804;51.176;4.452;2023-06-10T13:57:55;43.30;1.00
24686;DHT22;12804;51.176;4.452;2023-06-10T14:00:21;44.30;1.00
24686;DHT22;12804;51.176;4.452;2023-06-10T14:02:47;45.20;1.00
24686;DHT22;12804;51.176;4.452;2023-06-10T14:05:13;46.20;1.00
24686;DHT22;12804;51.176;4.452;2023-06-10T14:07:38;45.80;1.00
24686;DHT22;12804;51.176;4.452;2023-06-10T14:10:06;45.00;1.00
24686;DHT22;12804;51.176;4.452;2023-06-10T14:12:34;44.60;1.00
24686;DHT22;12804;51.176;4.452;2023-06-10T14:15:00;45.20;1.00
24686;DHT22;12804;51.176;4.452;2023-06-10T14:17:26;45.80;1.00
24686;DHT22;12804;51.176;4.452;2023-06-10T14:19:52;46.40;1.00
24686;DHT22;12804;51.176;4.452;2023-06-10T14:22:18;47.10;1.00
24686;DHT22;12804;51.176;4.452;2023-06-10T14:24:43;47.10;1.00
24686;DHT22;12804;51.176;4.452;2023-06-10T14:27:09;46.90;1.00
24686;DHT22;12804;51.176;4.452;2023-06-10T14:29:35;46.90;1.00
24686;DHT22;12804;51.176;4.452;2023-06-10T14:32:01;46.30;1.00
24686;DHT22;12804;51.176;4.452;2023-06-10T14:34:27;45.50;1.00
24686;DHT22;12804;51.176;4.452;2023-06-10T14:36:55;45.90;1.00
24686;DHT22;12804;51.176;4.452;2023-06-10T14:39:21;46.10;1.00
24686;DHT22;12804;51.176;4.452;2023-06-10T14:41:47;46.00;1.00
24686;DHT22;12804;51.176;4.452;2023-06-10T14:44:13;45.40;1.00
24686;DHT22;12804;51.176;4.452;2023-06-10T14:46:39;45.70;1.00
24686;DHT22;12804;51.176;4.452;2023-06-10T14:49:04;45.60;1.00
24686;DHT22;12804;51.176;4.452;2023-06-10T14:51:30;45.10;1.00
24686;DHT22;12804;51.176;4.452;2023-06-10T14:53:56;46.30;1.00
24686;DHT22;12804;51.176;4.452;2023-06-10T14:56:23;46.00;1.00
24686;DHT22;12804;51.176;4.452;2023-06-10T14:58:49;45.50;1.00
24686;DHT22;12804;51.176;4.452;2023-06-10T15:01:15;46.30;1.00
24686;DHT22;12804;51.176;4.452;2023-06-10T15:03:40;46.40;1.00
24686;DHT22;12804;51.176;4.452;2023-06-10T15:06:06;46.80;1.00
24686;DHT22;12804;51.176;4.452;2023-06-10T15:08:32;46.80;1.00
24686;DHT22;12804;51.176;4.452;2023-06-10T15:10:58;46.20;1.00
24686;DHT22;12804;51.176;4.452;2023-06-10T15:13:24;45.90;1.00
24686;DHT22;12804;51.176;4.452;2023-06-10T15:15:49;46.60;1.00
24686;DHT22;12804;51.176;4.452;2023-06-10T15:18:15;47.30;1.00
24686;DHT22;12804;51.176;4.452;2023-06-10T15:20:41;47.70;1.00
24686;DHT22;12804;51.176;4.452;2023-06-10T15:23:07;48.80;1.00
24686;DHT22;12804;51.176;4.452;2023-06-10T15:25:33;48.60;1.00
24686;DHT22;12804;51.176;4.452;2023-06-10T15:27:59;48.50;1.00
24686;DHT22;12804;51.176;4.452;2023-06-10T15:30:25;48.90;1.00
24686;DHT22;12804;51.176;4.452;2023-06-10T15:32:51;49.40;1.00
24686;DHT22;12804;51.176;4.452;2023-06-10T15:35:17;48.90;1.00
24686;DHT22;12804;51.176;4.452;2023-06-10T15:37:43;47.70;1.00
24686;DHT22;12804;51.176;4.452;2023-06-10T15:40:09;46.70;1.00
24686;DHT22;12804;51.176;4.452;2023-06-10T15:42:35;47.70;1.00
24686;DHT22;12804;51.176;4.452;2023-06-10T15:45:01;48.50;1.00
24686;DHT22;12804;51.176;4.452;2023-06-10T15:47:27;47.40;1.00
24686;DHT22;12804;51.176;4.452;2023-06-10T15:49:53;47.20;1.00
24686;DHT22;12804;51.176;4.452;2023-06-10T15:52:19;46.80;1.00
24686;DHT22;12804;51.176;4.452;2023-06-10T15:54:45;47.60;1.00
24686;DHT22;12804;51.176;4.452;2023-06-10T15:57:10;47.30;1.00